createdAt,value
2017-10-23T00:00:19.965Z,0
2017-10-23T00:01:19.877Z,0
2017-10-23T00:02:19.881Z,0
2017-10-23T00:03:19.890Z,0
2017-10-23T00:04:19.872Z,0
2017-10-23T00:05:20.378Z,0
2017-10-23T00:06:20.198Z,0
2017-10-23T00:07:19.865Z,0
2017-10-23T00:08:19.855Z,0
2017-10-23T00:09:20.170Z,0
2017-10-23T00:10:20.430Z,0
2017-10-23T00:11:20.162Z,0
2017-10-23T00:12:19.839Z,0
2017-10-23T00:13:19.836Z,0
2017-10-23T00:14:19.832Z,0
2017-10-23T00:15:20.227Z,0
2017-10-23T00:16:19.832Z,0
2017-10-23T00:17:19.819Z,0
2017-10-23T00:18:20.159Z,0
2017-10-23T00:19:19.504Z,0
2017-10-23T00:20:20.510Z,0
2017-10-23T00:21:20.147Z,0
2017-10-23T00:22:19.851Z,0
2017-10-23T00:23:20.139Z,0
2017-10-23T00:24:20.124Z,0
2017-10-23T00:25:21.352Z,0
2017-10-23T00:26:20.122Z,0
2017-10-23T00:27:19.462Z,0
2017-10-23T00:28:20.112Z,0
2017-10-23T00:29:20.111Z,0
2017-10-23T00:30:21.221Z,0
2017-10-23T00:31:19.461Z,0
2017-10-23T00:32:19.878Z,0
2017-10-23T00:33:19.691Z,0
2017-10-23T00:34:19.453Z,0
2017-10-23T00:35:21.114Z,0
2017-10-23T00:36:19.771Z,0
2017-10-23T00:37:19.752Z,0
2017-10-23T00:38:19.745Z,0
2017-10-23T00:39:19.742Z,0
2017-10-23T00:40:22.510Z,0
2017-10-23T00:41:19.407Z,0
2017-10-23T00:42:19.746Z,0
2017-10-23T00:43:19.744Z,0
2017-10-23T00:44:19.097Z,0
2017-10-23T00:45:22.705Z,0
2017-10-23T00:46:19.729Z,0
2017-10-23T00:47:20.048Z,0
2017-10-23T00:48:20.042Z,0
2017-10-23T00:49:20.074Z,0
2017-10-23T00:50:19.777Z,0
2017-10-23T00:51:19.390Z,0
2017-10-23T00:52:20.016Z,0
2017-10-23T00:53:19.690Z,0
2017-10-23T00:54:19.380Z,0
2017-10-23T00:55:20.148Z,0
2017-10-23T00:56:19.998Z,0
2017-10-23T00:57:19.695Z,0
2017-10-23T00:58:19.993Z,0
2017-10-23T00:59:19.997Z,0
2017-10-23T01:00:20.002Z,0
2017-10-23T01:01:19.989Z,0
2017-10-23T01:02:19.332Z,0
2017-10-23T01:03:19.659Z,0
2017-10-23T01:04:19.329Z,0
2017-10-23T01:05:20.010Z,0
2017-10-23T01:06:19.969Z,0
2017-10-23T01:07:19.314Z,0
2017-10-23T01:08:19.954Z,0
2017-10-23T01:09:19.626Z,0
2017-10-23T01:10:20.342Z,0
2017-10-23T01:11:19.953Z,0
2017-10-23T01:12:19.628Z,0
2017-10-23T01:13:19.613Z,0
2017-10-23T01:14:19.618Z,0
2017-10-23T01:15:25.750Z,0
2017-10-23T01:16:19.609Z,0
2017-10-23T01:17:19.932Z,0
2017-10-23T01:18:19.597Z,0
2017-10-23T01:19:19.593Z,0
2017-10-23T01:20:20.698Z,0
2017-10-23T01:21:19.266Z,0
2017-10-23T01:22:18.930Z,0
2017-10-23T01:23:19.901Z,0
2017-10-23T01:24:19.896Z,0
2017-10-23T01:25:20.119Z,0
2017-10-23T01:26:19.564Z,0
2017-10-23T01:27:19.893Z,0
2017-10-23T01:28:19.566Z,0
2017-10-23T01:29:19.549Z,0
2017-10-23T01:30:20.572Z,0
2017-10-23T01:31:20.025Z,0
2017-10-23T01:32:19.911Z,0
2017-10-23T01:33:20.796Z,0
2017-10-23T01:34:19.539Z,0
2017-10-23T01:35:20.495Z,0
2017-10-23T01:36:18.882Z,0
2017-10-23T01:37:19.840Z,0
2017-10-23T01:38:19.519Z,0
2017-10-23T01:39:19.837Z,0
2017-10-23T01:40:20.623Z,0
2017-10-23T01:41:19.829Z,0
2017-10-23T01:42:19.842Z,0
2017-10-23T01:43:19.813Z,0
2017-10-23T01:44:19.175Z,0
2017-10-23T01:45:20.004Z,0
2017-10-23T01:46:20.269Z,0
2017-10-23T01:47:19.818Z,0
2017-10-23T01:48:19.160Z,0
2017-10-23T01:49:19.831Z,0
2017-10-23T01:50:19.910Z,0
2017-10-23T01:51:18.824Z,0
2017-10-23T01:52:19.470Z,0
2017-10-23T01:53:19.798Z,0
2017-10-23T01:54:19.155Z,0
2017-10-23T01:55:20.910Z,0
2017-10-23T01:56:19.473Z,0
2017-10-23T01:57:19.784Z,0
2017-10-23T01:58:18.798Z,0
2017-10-23T01:59:19.441Z,0
2017-10-23T02:00:20.657Z,0
2017-10-23T02:01:20.905Z,0
2017-10-23T02:02:19.767Z,0
2017-10-23T02:03:19.761Z,0
2017-10-23T02:04:19.747Z,0
2017-10-23T02:05:20.643Z,0
2017-10-23T02:06:19.406Z,0
2017-10-23T02:07:19.729Z,0
2017-10-23T02:08:19.083Z,0
2017-10-23T02:09:19.395Z,0
2017-10-23T02:10:19.993Z,0
2017-10-23T02:11:19.391Z,0
2017-10-23T02:12:19.067Z,0
2017-10-23T02:13:19.057Z,0
2017-10-23T02:14:19.701Z,0
2017-10-23T02:15:19.807Z,0
2017-10-23T02:16:19.704Z,0
2017-10-23T02:17:19.362Z,0
2017-10-23T02:18:19.361Z,0
2017-10-23T02:19:19.364Z,0
2017-10-23T02:20:20.223Z,0
2017-10-23T02:21:19.667Z,0
2017-10-23T02:22:19.665Z,0
2017-10-23T02:23:19.014Z,0
2017-10-23T02:24:19.019Z,0
2017-10-23T02:25:20.228Z,0
2017-10-23T02:26:19.018Z,0
2017-10-23T02:27:19.000Z,0
2017-10-23T02:28:19.310Z,0
2017-10-23T02:29:18.664Z,0
2017-10-23T02:30:20.462Z,0
2017-10-23T02:31:18.984Z,0
2017-10-23T02:32:19.312Z,0
2017-10-23T02:33:19.295Z,0
2017-10-23T02:34:19.620Z,0
2017-10-23T02:35:20.862Z,0
2017-10-23T02:36:19.616Z,0
2017-10-23T02:37:18.961Z,0
2017-10-23T02:38:19.274Z,0
2017-10-23T02:39:19.276Z,0
2017-10-23T02:40:20.338Z,0
2017-10-23T02:41:19.289Z,0
2017-10-23T02:42:18.957Z,0
2017-10-23T02:43:19.258Z,0
2017-10-23T02:44:19.568Z,0
2017-10-23T02:45:19.759Z,0
2017-10-23T02:46:19.558Z,0
2017-10-23T02:47:24.585Z,0
2017-10-23T02:48:18.904Z,0
2017-10-23T02:49:19.223Z,0
2017-10-23T02:50:19.924Z,0
2017-10-23T02:51:19.544Z,0
2017-10-23T02:52:19.531Z,0
2017-10-23T02:53:19.216Z,0
2017-10-23T02:54:19.542Z,0
2017-10-23T02:55:20.092Z,0
2017-10-23T02:56:19.201Z,0
2017-10-23T02:57:19.518Z,0
2017-10-23T02:58:19.531Z,0
2017-10-23T02:59:19.507Z,0
2017-10-23T03:00:20.227Z,0
2017-10-23T03:01:19.167Z,0
2017-10-23T03:02:18.845Z,0
2017-10-23T03:03:18.843Z,0
2017-10-23T03:04:19.491Z,0
2017-10-23T03:05:20.291Z,0
2017-10-23T03:06:19.163Z,0
2017-10-23T03:07:19.154Z,0
2017-10-23T03:08:19.163Z,0
2017-10-23T03:09:19.151Z,0
2017-10-23T03:10:20.010Z,0
2017-10-23T03:11:18.810Z,0
2017-10-23T03:12:18.488Z,0
2017-10-23T03:13:19.452Z,0
2017-10-23T03:14:19.432Z,0
2017-10-23T03:15:20.325Z,0
2017-10-23T03:16:19.432Z,0
2017-10-23T03:17:18.788Z,0
2017-10-23T03:18:19.411Z,0
2017-10-23T03:19:19.098Z,0
2017-10-23T03:20:19.294Z,0
2017-10-23T03:21:19.402Z,0
2017-10-23T03:22:19.074Z,0
2017-10-23T03:23:19.080Z,0
2017-10-23T03:24:18.742Z,0
2017-10-23T03:25:20.549Z,0
2017-10-23T03:26:19.065Z,0
2017-10-23T03:27:19.379Z,0
2017-10-23T03:28:19.066Z,0
2017-10-23T03:29:19.364Z,0
2017-10-23T03:30:20.891Z,0
2017-10-23T03:31:19.045Z,0
2017-10-23T03:32:19.359Z,0
2017-10-23T03:33:19.342Z,0
2017-10-23T03:34:19.037Z,0
2017-10-23T03:35:20.106Z,0
2017-10-23T03:36:19.340Z,0
2017-10-23T03:37:19.324Z,0
2017-10-23T03:38:18.692Z,0
2017-10-23T03:39:18.361Z,0
2017-10-23T03:40:20.304Z,0
2017-10-23T03:41:18.996Z,0
2017-10-23T03:42:19.328Z,0
2017-10-23T03:43:18.979Z,0
2017-10-23T03:44:18.998Z,0
2017-10-23T03:45:19.568Z,0
2017-10-23T03:46:18.971Z,0
2017-10-23T03:47:19.291Z,0
2017-10-23T03:48:19.730Z,0
2017-10-23T03:49:19.286Z,0
2017-10-23T03:50:19.434Z,0
2017-10-23T03:51:19.271Z,0
2017-10-23T03:52:18.951Z,0
2017-10-23T03:53:19.271Z,0
2017-10-23T03:54:18.623Z,0
2017-10-23T03:55:20.136Z,0
2017-10-23T03:56:19.255Z,0
2017-10-23T03:57:19.253Z,0
2017-10-23T03:58:18.918Z,0
2017-10-23T03:59:19.241Z,0
2017-10-23T04:00:19.892Z,0
2017-10-23T04:01:18.942Z,0
2017-10-23T04:02:19.218Z,0
2017-10-23T04:03:22.599Z,0
2017-10-23T04:04:18.908Z,0
2017-10-23T04:05:19.584Z,0
2017-10-23T04:06:18.886Z,0
2017-10-23T04:07:18.578Z,0
2017-10-23T04:08:18.876Z,0
2017-10-23T04:09:19.208Z,0
2017-10-23T04:10:20.292Z,0
2017-10-23T04:11:18.877Z,0
2017-10-23T04:12:19.202Z,0
2017-10-23T04:13:19.192Z,0
2017-10-23T04:14:19.183Z,0
2017-10-23T04:15:20.309Z,0
2017-10-23T04:16:18.852Z,0
2017-10-23T04:17:18.834Z,0
2017-10-23T04:18:19.076Z,0
2017-10-23T04:19:19.164Z,0
2017-10-23T04:20:20.072Z,0
2017-10-23T04:21:19.153Z,0
2017-10-23T04:22:18.500Z,0
2017-10-23T04:23:18.833Z,0
2017-10-23T04:24:18.869Z,0
2017-10-23T04:25:19.585Z,0
2017-10-23T04:26:18.842Z,0
2017-10-23T04:27:18.797Z,0
2017-10-23T04:28:19.124Z,0
2017-10-23T04:29:18.475Z,0
2017-10-23T04:30:19.172Z,0
2017-10-23T04:31:18.446Z,0
2017-10-23T04:32:18.781Z,0
2017-10-23T04:33:18.783Z,0
2017-10-23T04:34:18.778Z,0
2017-10-23T04:35:19.311Z,0
2017-10-23T04:36:18.473Z,0
2017-10-23T04:37:18.489Z,0
2017-10-23T04:38:19.066Z,0
2017-10-23T04:39:19.103Z,0
2017-10-23T04:40:19.537Z,0
2017-10-23T04:41:19.052Z,0
2017-10-23T04:42:18.409Z,0
2017-10-23T04:43:18.398Z,0
2017-10-23T04:44:18.729Z,0
2017-10-23T04:45:19.962Z,0
2017-10-23T04:46:18.393Z,0
2017-10-23T04:47:18.398Z,0
2017-10-23T04:48:19.047Z,0
2017-10-23T04:49:24.776Z,0
2017-10-23T04:50:19.535Z,0
2017-10-23T04:51:18.708Z,0
2017-10-23T04:52:19.035Z,0
2017-10-23T04:53:19.001Z,0
2017-10-23T04:54:19.007Z,0
2017-10-23T04:55:19.538Z,0
2017-10-23T04:56:19.006Z,0
2017-10-23T04:57:18.673Z,0
2017-10-23T04:58:18.658Z,0
2017-10-23T04:59:18.654Z,0
2017-10-23T05:00:20.200Z,0
2017-10-23T05:01:18.980Z,0
2017-10-23T05:02:18.088Z,0
2017-10-23T05:03:18.966Z,0
2017-10-23T05:04:18.644Z,0
2017-10-23T05:05:20.417Z,0
2017-10-23T05:06:18.681Z,0
2017-10-23T05:07:18.300Z,0
2017-10-23T05:08:18.612Z,0
2017-10-23T05:09:18.300Z,0
2017-10-23T05:10:19.425Z,0
2017-10-23T05:11:18.971Z,0
2017-10-23T05:12:18.974Z,0
2017-10-23T05:13:18.916Z,0
2017-10-23T05:14:18.587Z,0
2017-10-23T05:15:20.020Z,0
2017-10-23T05:16:18.583Z,0
2017-10-23T05:17:18.588Z,0
2017-10-23T05:18:18.593Z,0
2017-10-23T05:19:18.257Z,0
2017-10-23T05:20:20.322Z,0
2017-10-23T05:21:18.888Z,0
2017-10-23T05:22:18.564Z,0
2017-10-23T05:23:18.881Z,0
2017-10-23T05:24:18.559Z,0
2017-10-23T05:25:18.986Z,0
2017-10-23T05:26:18.563Z,0
2017-10-23T05:27:18.548Z,0
2017-10-23T05:28:18.858Z,0
2017-10-23T05:29:18.212Z,0
2017-10-23T05:30:19.833Z,4
2017-10-23T05:31:18.206Z,4
2017-10-23T05:32:18.527Z,4
2017-10-23T05:33:18.192Z,4
2017-10-23T05:34:18.512Z,0
2017-10-23T05:35:20.995Z,4
2017-10-23T05:36:18.823Z,4
2017-10-23T05:37:18.504Z,8
2017-10-23T05:38:18.821Z,4
2017-10-23T05:39:18.496Z,8
2017-10-23T05:40:19.619Z,8
2017-10-23T05:41:18.495Z,8
2017-10-23T05:42:18.807Z,12
2017-10-23T05:43:18.510Z,12
2017-10-23T05:44:18.148Z,16
2017-10-23T05:45:19.125Z,16
2017-10-23T05:46:18.820Z,20
2017-10-23T05:47:18.846Z,20
2017-10-23T05:48:18.834Z,24
2017-10-23T05:49:18.895Z,24
2017-10-23T05:50:21.581Z,32
2017-10-23T05:51:17.797Z,36
2017-10-23T05:52:18.444Z,44
2017-10-23T05:53:18.430Z,52
2017-10-23T05:54:18.760Z,60
2017-10-23T05:55:19.686Z,68
2017-10-23T05:56:18.745Z,80
2017-10-23T05:57:18.756Z,88
2017-10-23T05:58:18.417Z,96
2017-10-23T05:59:18.092Z,108
2017-10-23T06:00:19.766Z,120
2017-10-23T06:01:18.745Z,136
2017-10-23T06:02:18.085Z,148
2017-10-23T06:03:18.733Z,160
2017-10-23T06:04:18.062Z,172
2017-10-23T06:05:20.236Z,184
2017-10-23T06:06:18.386Z,192
2017-10-23T06:07:18.375Z,200
2017-10-23T06:08:18.693Z,208
2017-10-23T06:09:18.700Z,220
2017-10-23T06:10:19.391Z,236
2017-10-23T06:11:18.708Z,252
2017-10-23T06:12:18.040Z,264
2017-10-23T06:13:18.389Z,276
2017-10-23T06:14:18.692Z,284
2017-10-23T06:15:19.316Z,296
2017-10-23T06:16:18.661Z,308
2017-10-23T06:17:18.339Z,316
2017-10-23T06:18:18.008Z,324
2017-10-23T06:19:18.648Z,336
2017-10-23T06:20:19.174Z,348
2017-10-23T06:21:18.351Z,356
2017-10-23T06:22:18.650Z,368
2017-10-23T06:23:18.649Z,384
2017-10-23T06:24:18.313Z,404
2017-10-23T06:25:19.724Z,424
2017-10-23T06:26:17.992Z,436
2017-10-23T06:27:17.990Z,436
2017-10-23T06:28:18.627Z,456
2017-10-23T06:29:18.613Z,492
2017-10-23T06:30:19.781Z,532
2017-10-23T06:31:18.599Z,580
2017-10-23T06:32:18.614Z,628
2017-10-23T06:33:18.600Z,676
2017-10-23T06:34:18.271Z,724
2017-10-23T06:35:19.784Z,728
2017-10-23T06:36:18.322Z,716
2017-10-23T06:37:18.258Z,704
2017-10-23T06:38:18.588Z,692
2017-10-23T06:39:18.590Z,684
2017-10-23T06:40:20.054Z,680
2017-10-23T06:41:18.566Z,680
2017-10-23T06:42:17.598Z,688
2017-10-23T06:43:17.912Z,716
2017-10-23T06:44:18.239Z,776
2017-10-23T06:45:19.902Z,780
2017-10-23T06:46:18.229Z,772
2017-10-23T06:47:18.215Z,748
2017-10-23T06:48:17.889Z,712
2017-10-23T06:49:18.540Z,692
2017-10-23T06:50:19.036Z,716
2017-10-23T06:51:21.139Z,716
2017-10-23T06:52:18.525Z,704
2017-10-23T06:53:18.522Z,700
2017-10-23T06:54:18.191Z,712
2017-10-23T06:55:19.367Z,744
2017-10-23T06:56:17.549Z,792
2017-10-23T06:57:17.865Z,860
2017-10-23T06:58:17.856Z,916
2017-10-23T06:59:18.176Z,972
2017-10-23T07:00:19.851Z,1012
2017-10-23T07:01:18.176Z,1028
2017-10-23T07:02:17.849Z,1032
2017-10-23T07:03:18.484Z,1072
2017-10-23T07:04:18.151Z,1160
2017-10-23T07:05:20.104Z,1288
2017-10-23T07:06:18.277Z,1400
2017-10-23T07:07:18.474Z,1488
2017-10-23T07:08:18.466Z,1568
2017-10-23T07:09:18.504Z,1648
2017-10-23T07:10:19.566Z,1736
2017-10-23T07:11:18.450Z,1832
2017-10-23T07:12:18.131Z,1944
2017-10-23T07:13:18.451Z,2072
2017-10-23T07:14:17.799Z,2216
2017-10-23T07:15:19.153Z,2336
2017-10-23T07:16:17.789Z,2432
2017-10-23T07:17:18.109Z,2516
2017-10-23T07:18:18.105Z,2612
2017-10-23T07:19:18.419Z,2744
2017-10-23T07:20:19.120Z,2916
2017-10-23T07:21:19.925Z,3116
2017-10-23T07:22:17.781Z,3300
2017-10-23T07:23:17.777Z,3472
2017-10-23T07:24:17.768Z,3540
2017-10-23T07:25:18.985Z,3596
2017-10-23T07:26:17.768Z,3624
2017-10-23T07:27:18.082Z,3640
2017-10-23T07:28:18.395Z,3596
2017-10-23T07:29:18.399Z,3500
2017-10-23T07:30:19.462Z,3372
2017-10-23T07:31:18.386Z,3232
2017-10-23T07:32:18.391Z,2980
2017-10-23T07:33:18.395Z,2864
2017-10-23T07:34:18.054Z,2888
2017-10-23T07:35:19.598Z,2976
2017-10-23T07:36:19.223Z,3068
2017-10-23T07:37:18.373Z,3120
2017-10-23T07:38:18.371Z,3136
2017-10-23T07:39:18.363Z,3068
2017-10-23T07:40:18.451Z,2888
2017-10-23T07:41:17.713Z,2696
2017-10-23T07:42:18.356Z,2552
2017-10-23T07:43:17.754Z,2576
2017-10-23T07:44:17.957Z,2748
2017-10-23T07:45:19.414Z,2932
2017-10-23T07:46:18.025Z,3032
2017-10-23T07:47:18.061Z,3120
2017-10-23T07:48:17.691Z,3168
2017-10-23T07:49:18.329Z,3256
2017-10-23T07:50:18.601Z,3324
2017-10-23T07:51:18.333Z,3512
2017-10-23T07:52:18.327Z,3672
2017-10-23T07:53:17.681Z,3768
2017-10-23T07:54:17.675Z,3840
2017-10-23T07:55:19.339Z,3888
2017-10-23T07:56:17.989Z,3948
2017-10-23T07:57:17.661Z,4028
2017-10-23T07:58:18.334Z,4088
2017-10-23T07:59:17.995Z,4148
2017-10-23T08:00:18.503Z,4204
2017-10-23T08:01:17.980Z,4232
2017-10-23T08:02:17.665Z,4284
2017-10-23T08:03:17.652Z,4280
2017-10-23T08:04:18.284Z,4328
2017-10-23T08:05:18.642Z,4352
2017-10-23T08:06:17.974Z,4356
2017-10-23T08:07:18.005Z,4376
2017-10-23T08:08:17.954Z,4284
2017-10-23T08:09:17.981Z,4188
2017-10-23T08:10:18.792Z,4132
2017-10-23T08:11:17.641Z,3960
2017-10-23T08:12:17.958Z,3644
2017-10-23T08:13:18.262Z,3248
2017-10-23T08:14:17.944Z,2932
2017-10-23T08:15:19.148Z,2788
2017-10-23T08:16:17.928Z,2776
2017-10-23T08:17:17.616Z,2716
2017-10-23T08:18:18.257Z,2580
2017-10-23T08:19:18.257Z,2524
2017-10-23T08:20:18.786Z,2472
2017-10-23T08:21:18.242Z,2464
2017-10-23T08:22:18.915Z,2348
2017-10-23T08:23:17.920Z,2264
2017-10-23T08:24:17.911Z,2144
2017-10-23T08:25:18.786Z,2068
2017-10-23T08:26:17.919Z,2196
2017-10-23T08:27:17.900Z,2340
2017-10-23T08:28:18.225Z,2448
2017-10-23T08:29:18.230Z,2660
2017-10-23T08:30:19.692Z,2908
2017-10-23T08:31:17.891Z,3148
2017-10-23T08:32:17.899Z,3416
2017-10-23T08:33:17.915Z,3792
2017-10-23T08:34:17.888Z,4104
2017-10-23T08:35:18.964Z,4448
2017-10-23T08:36:17.887Z,4720
2017-10-23T08:37:17.514Z,5028
2017-10-23T08:38:18.203Z,5376
2017-10-23T08:39:17.574Z,5760
2017-10-23T08:40:19.360Z,6012
2017-10-23T08:41:17.876Z,7432
2017-10-23T08:42:18.992Z,7284
2017-10-23T08:43:17.866Z,6928
2017-10-23T08:44:17.550Z,6728
2017-10-23T08:45:18.398Z,7424
2017-10-23T08:46:17.874Z,7008
2017-10-23T08:47:18.193Z,6604
2017-10-23T08:48:17.863Z,6468
2017-10-23T08:49:17.861Z,6336
2017-10-23T08:50:19.409Z,6116
2017-10-23T08:51:18.176Z,6056
2017-10-23T08:52:18.475Z,6596
2017-10-23T08:53:18.178Z,6296
2017-10-23T08:54:17.537Z,6428
2017-10-23T08:55:19.207Z,6428
2017-10-23T08:56:17.521Z,6540
2017-10-23T08:57:17.541Z,7400
2017-10-23T08:58:18.173Z,7236
2017-10-23T08:59:18.175Z,6564
2017-10-23T09:00:18.515Z,6644
2017-10-23T09:01:17.847Z,7108
2017-10-23T09:02:17.846Z,6368
2017-10-23T09:03:17.840Z,6236
2017-10-23T09:04:17.845Z,6356
2017-10-23T09:05:19.492Z,6088
2017-10-23T09:06:17.849Z,5800
2017-10-23T09:07:18.171Z,5568
2017-10-23T09:08:18.164Z,5488
2017-10-23T09:09:17.835Z,5572
2017-10-23T09:10:18.948Z,5636
2017-10-23T09:11:17.833Z,5720
2017-10-23T09:12:18.181Z,5912
2017-10-23T09:13:18.163Z,5820
2017-10-23T09:14:17.836Z,5992
2017-10-23T09:15:19.668Z,6384
2017-10-23T09:16:18.168Z,6816
2017-10-23T09:17:17.515Z,7064
2017-10-23T09:18:17.826Z,7248
2017-10-23T09:19:17.822Z,7648
2017-10-23T09:20:19.146Z,7972
2017-10-23T09:21:17.813Z,8984
2017-10-23T09:22:17.502Z,9952
2017-10-23T09:23:20.462Z,7320
2017-10-23T09:24:17.487Z,8828
2017-10-23T09:25:18.627Z,7252
2017-10-23T09:26:17.815Z,7124
2017-10-23T09:27:17.810Z,7140
2017-10-23T09:28:18.126Z,7592
2017-10-23T09:29:17.808Z,6684
2017-10-23T09:30:18.765Z,6416
2017-10-23T09:31:17.855Z,6220
2017-10-23T09:32:18.125Z,6108
2017-10-23T09:33:17.479Z,6100
2017-10-23T09:34:17.493Z,6276
2017-10-23T09:35:18.857Z,6468
2017-10-23T09:36:17.801Z,6544
2017-10-23T09:37:17.832Z,6384
2017-10-23T09:38:17.483Z,6332
2017-10-23T09:39:18.116Z,6684
2017-10-23T09:40:18.780Z,6932
2017-10-23T09:41:17.814Z,6832
2017-10-23T09:42:18.130Z,6456
2017-10-23T09:43:18.121Z,6240
2017-10-23T09:44:17.804Z,6592
2017-10-23T09:45:18.741Z,6864
2017-10-23T09:46:17.794Z,7748
2017-10-23T09:47:18.117Z,6876
2017-10-23T09:48:17.471Z,7156
2017-10-23T09:49:18.139Z,8196
2017-10-23T09:50:18.829Z,7848
2017-10-23T09:51:17.784Z,7544
2017-10-23T09:52:17.790Z,8128
2017-10-23T09:53:18.583Z,7348
2017-10-23T09:54:17.787Z,7172
2017-10-23T09:55:18.888Z,6936
2017-10-23T09:56:17.787Z,7456
2017-10-23T09:57:17.779Z,6808
2017-10-23T09:58:17.784Z,6592
2017-10-23T09:59:18.109Z,7056
2017-10-23T10:00:19.141Z,6160
2017-10-23T10:01:18.112Z,5308
2017-10-23T10:02:17.783Z,4992
2017-10-23T10:03:17.780Z,4772
2017-10-23T10:04:17.468Z,4448
2017-10-23T10:05:18.926Z,3984
2017-10-23T10:06:17.785Z,3432
2017-10-23T10:07:17.469Z,2612
2017-10-23T10:08:17.789Z,2292
2017-10-23T10:09:18.021Z,2292
2017-10-23T10:10:18.505Z,2468
2017-10-23T10:11:18.106Z,2752
2017-10-23T10:12:17.790Z,3032
2017-10-23T10:13:17.775Z,3392
2017-10-23T10:14:17.772Z,3768
2017-10-23T10:15:19.443Z,4096
2017-10-23T10:16:17.772Z,4412
2017-10-23T10:17:18.097Z,4744
2017-10-23T10:18:17.440Z,5044
2017-10-23T10:19:17.447Z,5276
2017-10-23T10:20:18.862Z,5440
2017-10-23T10:21:18.117Z,5576
2017-10-23T10:22:18.112Z,5664
2017-10-23T10:23:18.073Z,5712
2017-10-23T10:24:18.713Z,5720
2017-10-23T10:25:18.609Z,5672
2017-10-23T10:26:17.436Z,5732
2017-10-23T10:27:17.438Z,5988
2017-10-23T10:28:17.450Z,6128
2017-10-23T10:29:17.750Z,6316
2017-10-23T10:30:19.271Z,6468
2017-10-23T10:31:17.422Z,6468
2017-10-23T10:32:17.746Z,6368
2017-10-23T10:33:17.742Z,6284
2017-10-23T10:34:17.743Z,6356
2017-10-23T10:35:19.708Z,6408
2017-10-23T10:36:17.424Z,6428
2017-10-23T10:37:18.057Z,6516
2017-10-23T10:38:17.099Z,6600
2017-10-23T10:39:21.019Z,6580
2017-10-23T10:40:19.629Z,6464
2017-10-23T10:41:17.399Z,6256
2017-10-23T10:42:17.729Z,6064
2017-10-23T10:43:17.732Z,5988
2017-10-23T10:44:18.051Z,5904
2017-10-23T10:45:18.876Z,5876
2017-10-23T10:46:18.041Z,5884
2017-10-23T10:47:17.717Z,5880
2017-10-23T10:48:17.726Z,5848
2017-10-23T10:49:17.721Z,5820
2017-10-23T10:50:19.274Z,5848
2017-10-23T10:51:17.723Z,5888
2017-10-23T10:52:17.391Z,5888
2017-10-23T10:53:17.398Z,5844
2017-10-23T10:54:18.029Z,5764
2017-10-23T10:55:21.360Z,5652
2017-10-23T10:56:17.399Z,5560
2017-10-23T10:57:17.723Z,5436
2017-10-23T10:58:17.380Z,5304
2017-10-23T10:59:17.385Z,5184
2017-10-23T11:00:18.363Z,5100
2017-10-23T11:01:17.698Z,5052
2017-10-23T11:02:18.021Z,5068
2017-10-23T11:03:18.041Z,5116
2017-10-23T11:04:18.033Z,5160
2017-10-23T11:05:19.559Z,5188
2017-10-23T11:06:17.698Z,5176
2017-10-23T11:07:17.370Z,5144
2017-10-23T11:08:18.029Z,5104
2017-10-23T11:09:18.006Z,5060
2017-10-23T11:10:19.582Z,5004
2017-10-23T11:11:18.013Z,4952
2017-10-23T11:12:18.014Z,4936
2017-10-23T11:13:18.011Z,4876
2017-10-23T11:14:17.691Z,4760
2017-10-23T11:15:19.672Z,4624
2017-10-23T11:16:17.681Z,4504
2017-10-23T11:17:17.680Z,4428
2017-10-23T11:18:17.678Z,4424
2017-10-23T11:19:17.999Z,4460
2017-10-23T11:20:19.162Z,4576
2017-10-23T11:21:17.677Z,4696
2017-10-23T11:22:17.374Z,4756
2017-10-23T11:23:17.679Z,4784
2017-10-23T11:24:18.008Z,4792
2017-10-23T11:25:19.060Z,4720
2017-10-23T11:26:17.989Z,4660
2017-10-23T11:27:17.985Z,4584
2017-10-23T11:28:17.343Z,4556
2017-10-23T11:29:17.994Z,4564
2017-10-23T11:30:18.924Z,4596
2017-10-23T11:31:17.334Z,4636
2017-10-23T11:32:17.986Z,4712
2017-10-23T11:33:17.660Z,4792
2017-10-23T11:34:17.017Z,4872
2017-10-23T11:35:19.405Z,4988
2017-10-23T11:36:17.337Z,5140
2017-10-23T11:37:17.665Z,5324
2017-10-23T11:38:17.333Z,5500
2017-10-23T11:39:17.656Z,5656
2017-10-23T11:40:18.629Z,5784
2017-10-23T11:41:18.032Z,5860
2017-10-23T11:42:17.646Z,5908
2017-10-23T11:43:17.329Z,5940
2017-10-23T11:44:17.974Z,5960
2017-10-23T11:45:18.944Z,5968
2017-10-23T11:46:17.647Z,5952
2017-10-23T11:47:17.319Z,5900
2017-10-23T11:48:17.973Z,5848
2017-10-23T11:49:17.637Z,5864
2017-10-23T11:50:18.286Z,5968
2017-10-23T11:51:17.639Z,6088
2017-10-23T11:52:17.311Z,6180
2017-10-23T11:53:17.633Z,6236
2017-10-23T11:54:17.956Z,6280
2017-10-23T11:55:18.772Z,6368
2017-10-23T11:56:19.305Z,6464
2017-10-23T11:57:17.970Z,6516
2017-10-23T11:58:17.315Z,6508
2017-10-23T11:59:17.310Z,6496
2017-10-23T12:00:19.045Z,6512
2017-10-23T12:01:17.957Z,6604
2017-10-23T12:02:17.648Z,6680
2017-10-23T12:03:17.638Z,6632
2017-10-23T12:04:17.943Z,6544
2017-10-23T12:05:18.782Z,6480
2017-10-23T12:06:17.644Z,6452
2017-10-23T12:07:17.302Z,6396
2017-10-23T12:08:17.297Z,6368
2017-10-23T12:09:17.749Z,6276
2017-10-23T12:10:18.293Z,6048
2017-10-23T12:11:20.149Z,5928
2017-10-23T12:12:17.609Z,5920
2017-10-23T12:13:17.297Z,5688
2017-10-23T12:14:17.615Z,5628
2017-10-23T12:15:19.060Z,5544
2017-10-23T12:16:17.613Z,5508
2017-10-23T12:17:17.620Z,5632
2017-10-23T12:18:17.956Z,5792
2017-10-23T12:19:17.940Z,5904
2017-10-23T12:20:18.985Z,5980
2017-10-23T12:21:17.928Z,6008
2017-10-23T12:22:17.934Z,5972
2017-10-23T12:23:17.924Z,5956
2017-10-23T12:24:17.630Z,6016
2017-10-23T12:25:18.795Z,5952
2017-10-23T12:26:18.356Z,5904
2017-10-23T12:27:17.618Z,5780
2017-10-23T12:28:17.920Z,5608
2017-10-23T12:29:17.299Z,5388
2017-10-23T12:30:18.516Z,5172
2017-10-23T12:31:17.798Z,5104
2017-10-23T12:32:17.917Z,5064
2017-10-23T12:33:17.603Z,5000
2017-10-23T12:34:17.587Z,4964
2017-10-23T12:35:18.484Z,5032
2017-10-23T12:36:17.606Z,5212
2017-10-23T12:37:17.909Z,5496
2017-10-23T12:38:17.913Z,5812
2017-10-23T12:39:17.275Z,5996
2017-10-23T12:40:18.657Z,6108
2017-10-23T12:41:21.841Z,6140
2017-10-23T12:42:17.941Z,6136
2017-10-23T12:43:17.977Z,6204
2017-10-23T12:44:17.909Z,6292
2017-10-23T12:45:19.098Z,6328
2017-10-23T12:46:17.896Z,6452
2017-10-23T12:47:17.574Z,6448
2017-10-23T12:48:17.910Z,6692
2017-10-23T12:49:17.595Z,6160
2017-10-23T12:50:18.719Z,7040
2017-10-23T12:51:17.891Z,6804
2017-10-23T12:52:17.254Z,6784
2017-10-23T12:53:17.255Z,6836
2017-10-23T12:54:16.943Z,6832
2017-10-23T12:55:18.325Z,6804
2017-10-23T12:56:17.565Z,5808
2017-10-23T12:57:19.631Z,5784
2017-10-23T12:58:17.580Z,5672
2017-10-23T12:59:17.242Z,5420
2017-10-23T13:00:19.492Z,5132
2017-10-23T13:01:17.567Z,4836
2017-10-23T13:02:17.568Z,4836
2017-10-23T13:03:17.891Z,5064
2017-10-23T13:04:17.273Z,5284
2017-10-23T13:05:18.485Z,5276
2017-10-23T13:06:17.882Z,5196
2017-10-23T13:07:17.564Z,5080
2017-10-23T13:08:17.244Z,4908
2017-10-23T13:09:17.257Z,4896
2017-10-23T13:10:19.077Z,4992
2017-10-23T13:11:17.567Z,5212
2017-10-23T13:12:17.564Z,5304
2017-10-23T13:13:17.876Z,5436
2017-10-23T13:14:17.563Z,5516
2017-10-23T13:15:18.310Z,5604
2017-10-23T13:16:18.099Z,5712
2017-10-23T13:17:17.574Z,5884
2017-10-23T13:18:17.571Z,6468
2017-10-23T13:19:17.879Z,5700
2017-10-23T13:20:18.716Z,5688
2017-10-23T13:21:17.618Z,5588
2017-10-23T13:22:17.574Z,5784
2017-10-23T13:23:17.233Z,5388
2017-10-23T13:24:17.570Z,5088
2017-10-23T13:25:18.822Z,4756
2017-10-23T13:26:17.223Z,4408
2017-10-23T13:27:21.703Z,3936
2017-10-23T13:28:17.222Z,3456
2017-10-23T13:29:17.225Z,3048
2017-10-23T13:30:18.087Z,2756
2017-10-23T13:31:17.540Z,2588
2017-10-23T13:32:17.866Z,2316
2017-10-23T13:33:17.221Z,2188
2017-10-23T13:34:17.871Z,2128
2017-10-23T13:35:18.820Z,2200
2017-10-23T13:36:17.864Z,2364
2017-10-23T13:37:17.223Z,2668
2017-10-23T13:38:17.533Z,3160
2017-10-23T13:39:17.865Z,3672
2017-10-23T13:40:18.842Z,4108
2017-10-23T13:41:17.524Z,4392
2017-10-23T13:42:17.529Z,4508
2017-10-23T13:43:17.523Z,4616
2017-10-23T13:44:17.519Z,4616
2017-10-23T13:45:18.653Z,4520
2017-10-23T13:46:17.518Z,4404
2017-10-23T13:47:17.528Z,4308
2017-10-23T13:48:16.884Z,4152
2017-10-23T13:49:17.843Z,4020
2017-10-23T13:50:18.260Z,3932
2017-10-23T13:51:17.513Z,3904
2017-10-23T13:52:17.524Z,3828
2017-10-23T13:53:17.530Z,3612
2017-10-23T13:54:17.852Z,3368
2017-10-23T13:55:18.254Z,3216